Time;durP1;ratioP1;P1;durP2;ratioP2;P2;SDS_P1;SDS_P2;PMS_P1;PMS_P2;Temp;Humidity;BMP_temperature;BMP_pressure;BME280_temperature;BME280_humidity;BME280_pressure;Samples;Min_cycle;Max_cycle;Signal;HPM_P1;HPM_P2
2021/01/24 00:01:02;;;;;;;14.58;10.63;;;;;;;6.25;77.31;100697.70;1723305;82;21041;-74
2021/01/24 00:03:31;;;;;;;13.53;9.35;;;;;;;6.25;77.20;100704.20;1753341;80;20951;-73
2021/01/24 00:05:59;;;;;;;16.20;9.95;;;;;;;6.28;77.14;100705.41;1723194;82;21677;-72
2021/01/24 00:08:26;;;;;;;13.18;8.23;;;;;;;6.28;77.14;100699.73;1737278;81;20949;-73
2021/01/24 00:10:54;;;;;;;11.53;8.40;;;;;;;6.29;77.09;100700.58;1723236;82;21169;-73
2021/01/24 00:13:22;;;;;;;12.47;8.45;;;;;;;6.29;77.12;100697.54;1737202;81;21058;-72
2021/01/24 00:15:50;;;;;;;13.48;9.40;;;;;;;6.29;77.10;100689.73;1723377;82;21029;-73
2021/01/24 00:18:18;;;;;;;12.00;8.53;;;;;;;6.29;77.08;100697.97;1737103;81;20954;-73
2021/01/24 00:20:46;;;;;;;10.05;7.10;;;;;;;6.32;77.03;100686.14;1723344;82;20923;-74
2021/01/24 00:23:15;;;;;;;13.00;8.08;;;;;;;6.33;76.97;100679.55;1737508;81;21204;-73
2021/01/24 00:25:43;;;;;;;11.93;8.53;;;;;;;6.34;76.99;100681.72;1721703;82;20987;-72
2021/01/24 00:28:11;;;;;;;13.22;9.15;;;;;;;6.33;77.00;100677.41;1722533;82;21031;-73
2021/01/24 00:30:39;;;;;;;14.20;10.28;;;;;;;6.32;76.98;100675.27;1715905;82;21053;-75
2021/01/24 00:33:07;;;;;;;18.67;10.82;;;;;;;6.32;76.97;100675.73;1722287;82;21389;-73
2021/01/24 00:35:35;;;;;;;12.05;9.23;;;;;;;6.30;77.00;100677.55;1715774;82;21720;-74
2021/01/24 00:38:03;;;;;;;13.60;7.90;;;;;;;6.29;76.95;100672.80;1745324;80;21587;-75
2021/01/24 00:40:31;;;;;;;9.15;7.05;;;;;;;6.28;76.95;100672.86;1782753;79;20986;-73
2021/01/24 00:42:59;;;;;;;11.95;7.78;;;;;;;6.27;76.95;100669.84;1782782;79;21049;-73
2021/01/24 00:45:27;;;;;;;11.05;8.10;;;;;;;6.23;77.00;100671.28;1814759;79;20935;-73
2021/01/24 00:47:56;;;;;;;14.68;8.80;;;;;;;6.21;76.99;100675.70;1782817;79;22729;-73
2021/01/24 00:50:24;;;;;;;12.90;8.48;;;;;;;6.20;77.01;100667.95;1782803;79;20947;-72
2021/01/24 00:52:52;;;;;;;15.55;9.33;;;;;;;6.17;77.05;100658.97;1783223;79;21494;-73
2021/01/24 00:55:20;;;;;;;9.93;7.47;;;;;;;6.18;77.02;100667.16;1783067;79;20974;-74
2021/01/24 00:57:48;;;;;;;13.90;7.58;;;;;;;6.15;77.10;100669.44;1783201;79;20950;-73
2021/01/24 01:00:18;;;;;;;12.37;9.18;;;;;;;6.13;77.11;100666.05;1784755;79;21157;-73
2021/01/24 01:02:46;;;;;;;10.55;8.13;;;;;;;6.11;77.15;100661.81;1785175;79;21007;-73
2021/01/24 01:05:16;;;;;;;13.83;9.45;;;;;;;6.09;77.17;100668.41;1817028;78;20958;-73
2021/01/24 01:07:44;;;;;;;15.55;9.30;;;;;;;6.08;77.18;100665.40;1785191;78;21010;-73
2021/01/24 01:10:12;;;;;;;13.85;8.23;;;;;;;6.06;77.18;100665.91;1785154;79;20963;-73
2021/01/24 01:12:39;;;;;;;9.43;7.67;;;;;;;6.05;77.17;100661.63;1784663;79;21097;-73
2021/01/24 01:15:09;;;;;;;9.53;6.75;;;;;;;6.03;77.21;100662.60;1784381;78;20947;-73
2021/01/24 01:17:37;;;;;;;12.68;7.28;;;;;;;6.01;77.30;100664.80;1784776;79;20980;-74
2021/01/24 01:20:08;;;;;;;11.75;9.05;;;;;;;6.01;77.32;100675.21;1783357;79;20919;-75
2021/01/24 01:22:36;;;;;;;12.95;9.45;;;;;;;5.99;77.32;100671.82;1783749;79;20963;-75
2021/01/24 01:25:04;;;;;;;15.10;8.58;;;;;;;6.00;77.31;100672.66;1783479;79;21910;-76
2021/01/24 01:27:34;;;;;;;11.33;8.35;;;;;;;5.98;77.32;100672.74;1781646;79;20994;-75
2021/01/24 01:30:04;;;;;;;11.70;7.58;;;;;;;6.01;77.31;100674.37;1781607;79;21002;-76
2021/01/24 01:32:32;;;;;;;13.90;7.85;;;;;;;6.01;77.31;100679.58;1781859;79;21010;-75
2021/01/24 01:35:02;;;;;;;13.65;8.58;;;;;;;6.02;77.32;100674.75;1781611;79;21022;-74
2021/01/24 01:37:30;;;;;;;15.55;10.30;;;;;;;6.04;77.37;100669.48;1781482;79;21206;-76
2021/01/24 01:39:59;;;;;;;17.00;10.93;;;;;;;6.06;77.27;100676.33;1781682;78;20927;-75
2021/01/24 01:42:26;;;;;;;13.30;9.65;;;;;;;6.09;77.24;100673.62;1781251;79;21383;-74
2021/01/24 01:44:55;;;;;;;18.23;10.58;;;;;;;6.11;77.19;100676.98;1781163;79;20911;-75
2021/01/24 01:47:25;;;;;;;13.18;9.15;;;;;;;6.17;77.04;100675.43;1781203;79;21017;-76
2021/01/24 01:49:57;;;;;;;14.45;8.33;;;;;;;6.22;76.93;100680.02;1781157;79;21139;-75
2021/01/24 01:52:27;;;;;;;13.05;8.30;;;;;;;6.27;76.79;100673.75;1781059;79;20978;-74
2021/01/24 01:54:56;;;;;;;14.65;8.48;;;;;;;6.30;76.65;100677.09;1781135;79;20938;-75
2021/01/24 01:57:24;;;;;;;15.38;9.65;;;;;;;6.36;76.46;100678.14;1781059;79;20967;-76
2021/01/24 01:59:52;;;;;;;12.65;7.92;;;;;;;6.40;76.29;100677.11;1781084;79;21029;-74
2021/01/24 02:02:55;;;;;;;11.93;7.62;;;;;;;6.43;76.05;100675.66;1781207;79;22471;-75
2021/01/24 02:05:39;;;;;;;8.58;5.87;;;;;;;6.48;75.91;100676.77;1781041;79;20931;-76
2021/01/24 02:08:40;;;;;;;7.87;5.87;;;;;;;6.54;75.69;100678.28;1771037;79;20918;-75
2021/01/24 02:11:28;;;;;;;12.93;7.25;;;;;;;6.60;75.50;100675.39;1748465;79;20919;-76
2021/01/24 02:14:23;;;;;;;10.58;7.45;;;;;;;6.64;75.31;100678.27;1779240;79;21388;-74
2021/01/24 02:17:06;;;;;;;11.88;7.83;;;;;;;6.78;74.91;100679.84;1845933;76;22745;-73
2021/01/24 02:19:48;;;;;;;15.08;8.90;;;;;;;6.79;74.74;100687.20;1786267;79;21025;-75
2021/01/24 02:22:16;;;;;;;11.12;7.15;;;;;;;6.81;74.58;100681.00;1784726;79;22021;-76
2021/01/24 02:24:53;;;;;;;10.20;6.65;;;;;;;6.85;74.36;100679.12;1784749;79;20993;-73
2021/01/24 02:27:53;;;;;;;11.78;7.92;;;;;;;6.86;74.23;100678.19;1818031;77;21045;-74
2021/01/24 02:30:32;;;;;;;13.32;8.25;;;;;;;6.87;74.20;100676.42;1786084;79;21089;-74
2021/01/24 02:33:10;;;;;;;12.28;8.00;;;;;;;6.87;74.12;100681.20;1761112;79;21168;-74
2021/01/24 02:35:41;;;;;;;14.35;7.62;;;;;;;6.88;74.02;100682.88;1784968;79;21054;-72
2021/01/24 02:38:09;;;;;;;9.78;7.25;;;;;;;6.90;73.91;100678.91;1786129;79;20942;-74
2021/01/24 02:40:39;;;;;;;7.20;5.80;;;;;;;6.90;73.86;100675.84;1784881;79;20942;-73
2021/01/24 02:43:09;;;;;;;8.98;6.17;;;;;;;6.92;73.82;100676.63;1759748;79;20942;-73
2021/01/24 02:45:42;;;;;;;7.70;5.53;;;;;;;6.95;73.58;100676.48;1784796;79;20943;-75
2021/01/24 02:48:14;;;;;;;12.25;6.15;;;;;;;6.99;73.52;100678.50;1786192;79;20954;-73
2021/01/24 02:50:42;;;;;;;8.50;6.12;;;;;;;7.01;73.35;100680.59;1786295;79;21002;-76
2021/01/24 02:53:10;;;;;;;12.33;7.40;;;;;;;7.05;73.19;100670.42;1786518;79;20939;-73
2021/01/24 02:55:37;;;;;;;9.45;7.25;;;;;;;7.08;72.97;100678.55;1784866;79;21380;-72
2021/01/24 02:58:05;;;;;;;11.55;8.30;;;;;;;7.08;72.88;100671.58;1786195;79;20927;-74
2021/01/24 03:00:33;;;;;;;9.38;6.60;;;;;;;7.08;72.98;100676.79;1786324;79;21159;-73
2021/01/24 03:03:02;;;;;;;12.18;7.10;;;;;;;7.10;72.82;100674.96;1786214;79;20994;-74
2021/01/24 03:05:30;;;;;;;10.08;5.92;;;;;;;7.11;72.73;100681.02;1786240;79;20983;-74
2021/01/24 03:07:58;;;;;;;9.93;6.87;;;;;;;7.09;72.65;100679.77;1786184;79;20911;-72
2021/01/24 03:10:26;;;;;;;10.18;7.35;;;;;;;7.09;72.56;100677.16;1786207;79;20942;-74
2021/01/24 03:13:25;;;;;;;15.08;7.75;;;;;;;7.08;72.46;100685.91;1818093;78;22241;-75
2021/01/24 03:15:54;;;;;;;9.35;7.67;;;;;;;7.09;72.34;100683.68;1784690;79;21025;-73
2021/01/24 03:18:26;;;;;;;11.60;7.95;;;;;;;7.05;72.34;100677.78;1786104;79;20947;-74
2021/01/24 03:20:55;;;;;;;11.28;6.87;;;;;;;7.02;72.28;100676.59;1784806;79;21017;-75
2021/01/24 03:23:23;;;;;;;11.12;7.17;;;;;;;7.01;72.25;100685.34;1784792;79;20979;-74
2021/01/24 03:25:51;;;;;;;10.72;6.03;;;;;;;7.01;72.20;100678.82;1736215;79;21170;-74
2021/01/24 03:28:19;;;;;;;11.38;7.35;;;;;;;7.00;72.20;100679.75;1760260;79;21065;-72
2021/01/24 03:30:51;;;;;;;10.20;6.97;;;;;;;6.98;72.25;100670.27;1735736;79;20930;-75
2021/01/24 03:33:19;;;;;;;9.70;7.12;;;;;;;6.97;72.17;100672.05;1761082;79;20931;-73
2021/01/24 03:35:47;;;;;;;10.38;7.45;;;;;;;6.95;72.14;100669.96;1784232;79;20950;-72
2021/01/24 03:38:15;;;;;;;12.70;8.10;;;;;;;6.93;72.19;100669.18;1817399;77;21895;-72
2021/01/24 03:40:43;;;;;;;8.23;6.22;;;;;;;6.90;72.19;100665.88;1785486;79;21010;-72
2021/01/24 03:43:10;;;;;;;11.18;6.72;;;;;;;6.88;72.19;100672.45;1785420;79;21093;-72
2021/01/24 03:45:39;;;;;;;8.95;5.55;;;;;;;6.87;72.23;100673.81;1785781;79;20947;-72
2021/01/24 03:48:07;;;;;;;8.35;6.08;;;;;;;6.85;72.26;100679.12;1785715;79;20994;-72
2021/01/24 03:50:35;;;;;;;6.40;5.53;;;;;;;6.82;72.37;100672.25;1785579;79;21152;-71
2021/01/24 03:53:03;;;;;;;11.18;6.15;;;;;;;6.81;72.40;100679.69;1785482;79;21550;-71
2021/01/24 03:55:31;;;;;;;10.20;6.62;;;;;;;6.81;72.33;100682.77;1785712;79;20955;-71
2021/01/24 03:57:59;;;;;;;10.20;7.03;;;;;;;6.79;72.37;100678.07;1785608;79;20943;-72
2021/01/24 04:00:27;;;;;;;10.43;6.87;;;;;;;6.77;72.46;100684.64;1784224;77;20983;-72
2021/01/24 04:02:55;;;;;;;10.53;6.67;;;;;;;6.76;72.47;100676.45;1785601;79;21155;-72
2021/01/24 04:05:23;;;;;;;11.18;5.70;;;;;;;6.77;72.54;100690.32;1785323;79;20994;-73
2021/01/24 04:07:51;;;;;;;11.33;6.72;;;;;;;6.77;72.52;100689.02;1785532;79;21077;-72
2021/01/24 04:10:19;;;;;;;10.48;7.58;;;;;;;6.77;72.55;100687.72;1785550;79;21373;-73
2021/01/24 04:12:47;;;;;;;10.72;7.90;;;;;;;6.78;72.55;100686.36;1785493;77;20935;-75
2021/01/24 04:15:17;;;;;;;13.30;8.13;;;;;;;6.81;72.51;100686.21;1785614;79;20990;-71
2021/01/24 04:17:45;;;;;;;14.03;8.48;;;;;;;6.84;72.40;100692.58;1784184;79;20992;-73
2021/01/24 04:20:14;;;;;;;11.00;7.70;;;;;;;6.86;72.32;100692.52;1784346;79;21009;-74
2021/01/24 04:22:42;;;;;;;8.68;6.12;;;;;;;6.84;72.33;100688.67;1785361;79;20999;-73
2021/01/24 04:25:13;;;;;;;8.08;5.53;;;;;;;6.86;72.29;100693.83;1785757;79;21491;-75
2021/01/24 04:27:40;;;;;;;6.70;5.17;;;;;;;6.86;72.32;100687.31;1784327;79;21090;-74
2021/01/24 04:30:09;;;;;;;9.30;6.87;;;;;;;6.85;72.36;100686.47;1785889;79;21638;-74
2021/01/24 04:32:38;;;;;;;10.05;7.10;;;;;;;6.85;72.42;100681.73;1786850;79;21012;-73
2021/01/24 04:35:07;;;;;;;9.48;6.42;;;;;;;6.84;72.52;100684.77;1785648;79;21399;-73
2021/01/24 04:37:36;;;;;;;13.43;8.03;;;;;;;6.82;72.66;100684.44;1784283;79;21475;-74
2021/01/24 04:40:05;;;;;;;18.48;11.60;;;;;;;6.80;72.84;100688.88;1785511;79;21002;-74
2021/01/24 04:42:34;;;;;;;23.45;15.10;;;;;;;6.79;73.08;100696.31;1785383;79;20994;-71
2021/01/24 04:45:02;;;;;;;27.00;17.20;;;;;;;6.78;73.34;100698.09;1785399;79;21091;-73
2021/01/24 04:47:32;;;;;;;32.08;19.85;;;;;;;6.78;73.62;100703.73;1785580;79;20922;-71
2021/01/24 04:50:00;;;;;;;32.28;20.17;;;;;;;6.76;73.86;100698.61;1785732;79;21361;-73
2021/01/24 04:52:29;;;;;;;37.85;20.57;;;;;;;6.75;74.01;100698.66;1785789;79;21969;-73
2021/01/24 04:54:57;;;;;;;35.10;18.77;;;;;;;;;;1760480;79;20982;-74
2021/01/24 04:57:26;;;;;;;37.60;21.90;;;;;;;6.74;74.17;100688.70;1785611;79;20947;-73
2021/01/24 04:59:54;;;;;;;34.60;19.35;;;;;;;6.74;74.21;100692.61;1785473;79;21042;-74
2021/01/24 05:02:22;;;;;;;34.92;19.05;;;;;;;6.75;74.20;100694.28;1785641;79;21420;-74
2021/01/24 05:04:50;;;;;;;31.62;17.52;;;;;;;6.75;74.19;100694.28;1785516;79;21987;-74
2021/01/24 05:07:18;;;;;;;32.88;20.40;;;;;;;6.75;74.25;100697.36;1785573;79;21361;-74
2021/01/24 05:09:47;;;;;;;27.90;17.67;;;;;;;6.74;74.27;100702.19;1785544;79;20958;-72
2021/01/24 05:12:16;;;;;;;31.77;17.75;;;;;;;6.74;74.26;100697.82;1785542;79;20994;-72
2021/01/24 05:14:49;;;;;;;31.62;17.45;;;;;;;6.77;74.17;100698.14;1785598;79;21415;-73
2021/01/24 05:17:17;;;;;;;28.32;16.90;;;;;;;6.76;74.14;100698.61;1766502;78;21147;-73
2021/01/24 05:19:45;;;;;;;22.32;14.33;;;;;;;6.77;74.16;100708.56;1790973;78;21523;-73
2021/01/24 05:22:15;;;;;;;25.08;14.87;;;;;;;6.75;74.20;100700.80;1791986;78;21040;-71
2021/01/24 05:24:43;;;;;;;19.70;12.25;;;;;;;6.74;74.25;100706.94;1790999;77;20996;-71
2021/01/24 05:27:12;;;;;;;26.35;13.90;;;;;;;6.74;74.33;100700.89;1790856;78;21040;-74
2021/01/24 05:29:43;;;;;;;25.30;14.33;;;;;;;6.72;74.40;100698.34;1790798;77;21895;-74
2021/01/24 05:32:11;;;;;;;22.62;13.65;;;;;;;6.70;74.44;100702.77;1790668;78;21394;-73
2021/01/24 05:34:43;;;;;;;23.62;13.25;;;;;;;6.69;74.46;100698.45;1790775;78;20957;-72
2021/01/24 05:37:11;;;;;;;21.02;11.12;;;;;;;6.68;74.44;100695.47;1790545;78;21056;-75
2021/01/24 05:39:39;;;;;;;19.70;11.30;;;;;;;6.66;74.42;100697.75;1790987;78;20941;-73
2021/01/24 05:42:07;;;;;;;20.62;10.68;;;;;;;6.63;74.45;100698.73;1741013;78;21171;-76
2021/01/24 05:44:35;;;;;;;16.02;9.33;;;;;;;6.60;74.53;100704.05;1790816;77;21614;-76
2021/01/24 05:47:05;;;;;;;22.00;11.53;;;;;;;6.57;74.57;100700.29;1790576;78;21005;-77
2021/01/24 05:49:34;;;;;;;24.63;11.22;;;;;;;6.53;74.66;100691.74;1790567;77;21004;-74
2021/01/24 05:52:06;;;;;;;23.15;12.07;;;;;;;6.51;74.68;100690.95;1790852;78;21041;-75
2021/01/24 05:54:46;;;;;;;22.50;12.53;;;;;;;6.48;74.65;100688.49;1790592;78;21155;-77
2021/01/24 05:57:15;;;;;;;20.82;10.45;;;;;;;6.47;74.65;100685.94;1790657;78;20929;-75
2021/01/24 05:59:55;;;;;;;21.52;11.53;;;;;;;6.45;74.66;100687.33;1790756;78;20949;-78
2021/01/24 06:02:26;;;;;;;18.30;9.88;;;;;;;6.44;74.66;100695.58;1790600;78;21394;-77
2021/01/24 06:04:58;;;;;;;21.50;10.72;;;;;;;6.41;74.74;100686.59;1790606;78;21459;-78
2021/01/24 06:07:28;;;;;;;19.98;10.70;;;;;;;6.40;74.79;100697.08;1790574;77;21479;-75
2021/01/24 06:09:56;;;;;;;19.42;10.28;;;;;;;6.40;74.82;100693.17;1785537;78;21518;-76
2021/01/24 06:12:29;;;;;;;21.45;10.40;;;;;;;6.40;74.83;100689.26;1790600;77;21445;-79
2021/01/24 06:14:57;;;;;;;20.02;10.60;;;;;;;6.39;74.86;100688.88;1790475;78;20914;-82
2021/01/24 06:17:32;;;;;;;20.55;10.32;;;;;;;6.36;74.85;100698.98;1802079;78;20962;-77
2021/01/24 06:20:03;;;;;;;18.32;9.00;;;;;;;6.35;74.88;100692.52;1807106;78;21153;-75
2021/01/24 06:22:43;;;;;;;22.95;12.10;;;;;;;6.33;74.95;100687.83;1807069;78;21017;-77
2021/01/24 06:25:21;;;;;;;23.02;11.08;;;;;;;6.33;75.01;100688.66;1803820;78;21455;-77
2021/01/24 06:28:03;;;;;;;20.45;10.93;;;;;;;6.35;74.99;100692.52;1807045;78;21379;-77
2021/01/24 06:30:31;;;;;;;22.15;10.98;;;;;;;6.35;74.90;100689.45;1795178;78;21044;-76
2021/01/24 06:33:22;;;;;;;19.20;10.80;;;;;;;6.33;74.92;100695.64;1807089;78;21149;-76
2021/01/24 06:35:58;;;;;;;20.50;10.53;;;;;;;6.33;74.90;100699.55;1835128;78;21084;-76
2021/01/24 06:38:36;;;;;;;20.97;11.05;;;;;;;6.30;74.84;100703.59;1806938;76;20894;-76
2021/01/24 06:41:13;;;;;;;19.50;11.60;;;;;;;6.29;74.96;100711.86;1807052;78;21021;-78
2021/01/24 06:43:44;;;;;;;19.42;9.08;;;;;;;6.30;74.99;100702.28;1795491;78;21069;-78
2021/01/24 06:46:32;;;;;;;26.45;10.32;;;;;;;6.32;74.94;100709.59;1794046;78;21038;-77
2021/01/24 06:49:00;;;;;;;21.02;9.85;;;;;;;6.32;74.82;100712.19;1795427;78;20942;-77
2021/01/24 06:51:42;;;;;;;16.23;8.68;;;;;;;6.31;74.74;100703.97;1793970;78;20934;-75
2021/01/24 06:54:22;;;;;;;16.42;8.93;;;;;;;6.31;74.66;100708.71;1794159;78;21471;-75
2021/01/24 06:56:50;;;;;;;14.05;7.92;;;;;;;6.33;74.56;100710.80;1795365;78;20899;-77
2021/01/24 06:59:29;;;;;;;14.63;8.13;;;;;;;6.33;74.57;100696.94;1795537;78;21062;-76
2021/01/24 07:02:28;;;;;;;14.13;7.87;;;;;;;6.34;74.55;100698.66;1795171;78;20977;-77
2021/01/24 07:05:26;;;;;;;19.50;9.03;;;;;;;6.35;74.44;100702.47;1795646;78;21360;-75
2021/01/24 07:07:55;;;;;;;17.80;9.28;;;;;;;6.36;74.34;100709.39;1795264;78;21034;-74
2021/01/24 07:10:42;;;;;;;18.05;8.40;;;;;;;6.37;74.30;100706.33;1794007;78;21005;-74
2021/01/24 07:13:30;;;;;;;16.87;6.97;;;;;;;6.38;74.15;100704.10;1794308;78;21478;-76
2021/01/24 07:16:02;;;;;;;16.52;7.03;;;;;;;6.39;74.00;100703.20;1794149;78;20961;-76
2021/01/24 07:18:42;;;;;;;22.52;8.15;;;;;;;6.42;73.96;100700.47;1795781;78;20930;-75
2021/01/24 07:21:11;;;;;;;16.82;7.47;;;;;;;6.44;73.81;100706.45;1795481;77;20951;-74
2021/01/24 07:23:39;;;;;;;17.12;7.78;;;;;;;6.47;73.73;100699.84;1794280;78;20927;-76
2021/01/24 07:26:10;;;;;;;17.65;8.88;;;;;;;6.50;73.59;100701.00;1794138;78;21132;-74
2021/01/24 07:28:38;;;;;;;16.07;8.30;;;;;;;6.51;73.53;100702.68;1795194;78;21002;-76
2021/01/24 07:31:06;;;;;;;15.32;8.38;;;;;;;6.56;73.42;100698.14;1768354;78;20958;-78
2021/01/24 07:33:35;;;;;;;11.00;7.37;;;;;;;6.62;73.11;100690.51;1794236;77;21013;-78
2021/01/24 07:36:05;;;;;;;21.17;8.88;;;;;;;6.68;73.08;100708.96;1745210;78;20943;-76
2021/01/24 07:38:33;;;;;;;14.10;8.00;;;;;;;6.70;72.97;100706.67;1795614;78;21014;-75
2021/01/24 07:41:01;;;;;;;16.82;7.90;;;;;;;6.74;72.84;100701.73;1795404;78;21478;-76
2021/01/24 07:43:29;;;;;;;16.10;7.62;;;;;;;6.78;72.56;100703.73;1795068;78;21006;-75
2021/01/24 07:45:57;;;;;;;17.95;7.60;;;;;;;6.81;72.46;100701.02;1795681;78;21100;-74
2021/01/24 07:48:26;;;;;;;14.35;6.75;;;;;;;6.81;72.38;100703.62;1795375;78;20927;-76
2021/01/24 07:50:54;;;;;;;16.73;7.17;;;;;;;6.85;72.11;100702.58;1795649;78;22704;-77
2021/01/24 07:53:23;;;;;;;14.78;7.67;;;;;;;6.88;72.07;100705.50;1795309;78;21574;-78
2021/01/24 07:55:52;;;;;;;14.70;7.03;;;;;;;6.90;71.98;100708.43;1769978;78;21045;-77
2021/01/24 07:58:22;;;;;;;12.88;7.65;;;;;;;6.94;71.74;100709.99;1768280;78;20959;-76
2021/01/24 08:00:50;;;;;;;18.00;8.13;;;;;;;6.97;71.72;100721.58;1795722;77;21223;-73
2021/01/24 08:03:23;;;;;;;18.70;8.28;;;;;;;7.01;71.52;100716.62;1768758;78;22235;-76
2021/01/24 08:05:52;;;;;;;11.57;7.37;;;;;;;7.02;71.46;100724.83;1765947;78;21061;-78
2021/01/24 08:08:33;;;;;;;17.25;9.33;;;;;;;7.09;71.38;100720.19;1794097;78;20926;-80
2021/01/24 08:11:09;;;;;;;21.35;10.75;;;;;;;7.13;71.31;100724.83;1817979;77;21376;-78
2021/01/24 08:13:47;;;;;;;18.52;8.65;;;;;;;7.19;71.14;100728.47;1795247;78;20927;-79
2021/01/24 08:16:41;;;;;;;15.83;7.80;;;;;;;7.25;71.01;100724.30;1795195;78;21142;-78
2021/01/24 08:19:12;;;;;;;16.40;7.75;;;;;;;7.34;70.56;100728.27;1786024;79;20965;-79
2021/01/24 08:21:40;;;;;;;17.42;8.45;;;;;;;7.39;70.58;100728.89;1786127;79;20982;-77
2021/01/24 08:24:09;;;;;;;15.60;7.50;;;;;;;7.44;70.42;100719.09;1786184;79;20899;-80
2021/01/24 08:26:36;;;;;;;12.88;7.42;;;;;;;7.48;70.35;100725.86;1786220;79;21378;-82
2021/01/24 08:29:04;;;;;;;13.38;6.65;;;;;;;7.57;70.04;100717.61;1788233;79;22299;-82
2021/01/24 08:31:33;;;;;;;16.30;8.30;;;;;;;7.64;69.80;100720.78;1817771;79;21562;-78
2021/01/24 08:34:01;;;;;;;14.33;7.50;;;;;;;7.66;69.58;100732.00;1789118;79;21018;-80
2021/01/24 08:36:32;;;;;;;13.72;6.95;;;;;;;7.70;69.50;100717.89;1818570;77;20923;-79
2021/01/24 08:39:01;;;;;;;17.27;9.25;;;;;;;7.77;69.39;100722.38;1817582;79;20919;-81
2021/01/24 08:41:39;;;;;;;15.35;7.10;;;;;;;7.81;69.24;100718.23;1817346;79;21761;-77
2021/01/24 08:44:15;;;;;;;14.63;7.92;;;;;;;7.85;69.05;100718.48;1817673;77;21053;-81
2021/01/24 08:46:49;;;;;;;12.70;7.08;;;;;;;7.89;68.96;100713.95;1790822;77;26487;-78
2021/01/24 08:49:24;;;;;;;10.53;6.28;;;;;;;7.98;68.80;100717.89;1817038;79;20942;-79
2021/01/24 08:52:00;;;;;;;16.90;7.17;;;;;;;8.01;68.31;100711.23;1817373;79;20943;-80
2021/01/24 08:54:33;;;;;;;15.65;8.53;;;;;;;8.02;68.29;100699.86;1817255;79;21439;-78
2021/01/24 08:57:18;;;;;;;15.25;7.72;;;;;;;8.04;68.23;100700.16;1816801;77;21069;-81
2021/01/24 08:59:52;;;;;;;;;;;;;;;8.04;68.09;100701.94;1820182;77;20919;-80
2021/01/24 09:02:37;;;;;;;16.00;9.28;;;;;;;8.07;68.03;100704.39;1818474;79;20148;-83
2021/01/24 09:05:08;;;;;;;;;;;;;;;8.09;67.85;100702.55;1821702;77;21006;-83
2021/01/24 09:07:43;;;;;;;15.53;8.95;;;;;;;8.09;67.92;100707.34;1818028;77;21360;-82
2021/01/24 09:10:17;;;;;;;14.68;7.97;;;;;;;8.09;67.98;100707.34;1818098;77;20943;-82
2021/01/24 09:12:49;;;;;;;17.27;8.10;;;;;;;8.13;68.11;100696.73;1817749;78;20986;-83
2021/01/24 09:15:19;;;;;;;12.95;7.12;;;;;;;8.16;67.95;100703.09;1817641;79;20938;-82
2021/01/24 09:17:50;;;;;;;21.45;8.05;;;;;;;8.16;67.92;100702.66;1813396;77;21078;-83
2021/01/24 09:20:20;;;;;;;14.10;7.15;;;;;;;8.17;67.78;100700.89;1809972;78;22253;-82
2021/01/24 09:22:48;;;;;;;14.25;7.92;;;;;;;8.17;67.85;100695.66;1809951;77;20934;-83
2021/01/24 09:25:17;;;;;;;20.70;9.45;;;;;;;8.17;67.98;100691.28;1810205;78;20927;-82
2021/01/24 09:27:45;;;;;;;13.65;7.37;;;;;;;8.20;68.03;100695.50;1809809;79;20994;-77
2021/01/24 09:30:16;;;;;;;17.12;9.05;;;;;;;8.21;68.07;100684.98;1809748;78;20958;-81
2021/01/24 09:32:44;;;;;;;12.05;7.40;;;;;;;8.24;68.20;100686.13;1809812;79;21193;-78
2021/01/24 09:35:13;;;;;;;14.15;7.67;;;;;;;8.29;68.11;100689.38;1809624;78;20990;-76
2021/01/24 09:37:41;;;;;;;16.67;7.83;;;;;;;8.34;68.28;100689.16;1809758;79;20962;-76
2021/01/24 09:40:10;;;;;;;20.23;9.38;;;;;;;8.39;68.20;100682.39;1809782;79;20891;-74
2021/01/24 09:42:39;;;;;;;14.30;7.37;;;;;;;8.42;68.20;100667.42;1809673;78;20880;-79
2021/01/24 09:45:09;;;;;;;15.65;8.65;;;;;;;8.46;68.16;100674.19;1809721;79;21358;-77
2021/01/24 09:47:38;;;;;;;14.80;8.20;;;;;;;8.49;68.24;100670.13;1806274;79;20931;-79
2021/01/24 09:50:10;;;;;;;14.73;6.62;;;;;;;8.52;68.07;100663.06;1809731;78;20931;-77
2021/01/24 09:52:38;;;;;;;17.00;8.00;;;;;;;8.56;67.88;100666.74;1809745;79;20927;-76
2021/01/24 09:55:08;;;;;;;15.65;9.93;;;;;;;8.57;67.55;100656.66;1809673;78;21010;-80
2021/01/24 09:57:37;;;;;;;15.58;7.33;;;;;;;8.59;67.22;100651.36;1809765;79;22238;-80
2021/01/24 10:00:07;;;;;;;15.68;7.70;;;;;;;8.61;66.91;100645.59;1809642;78;21010;-78
2021/01/24 10:02:41;;;;;;;14.07;7.95;;;;;;;8.66;66.62;100649.64;1809776;79;20983;-77
2021/01/24 10:05:11;;;;;;;14.45;8.03;;;;;;;8.70;66.18;100641.20;1809999;79;20911;-83
2021/01/24 10:07:40;;;;;;;14.90;8.45;;;;;;;8.74;65.98;100640.55;1809780;79;20915;-79
2021/01/24 10:10:12;;;;;;;16.82;7.95;;;;;;;8.77;66.04;100636.49;1809676;79;21373;-79
2021/01/24 10:12:41;;;;;;;12.18;6.47;;;;;;;8.81;65.25;100628.88;1809659;78;20931;-75
2021/01/24 10:15:11;;;;;;;13.28;6.90;;;;;;;8.83;65.13;100631.78;1809805;78;20939;-78
2021/01/24 10:17:38;;;;;;;12.88;6.50;;;;;;;8.81;64.67;100638.86;1787785;79;20938;-75
2021/01/24 10:20:07;;;;;;;9.48;5.85;;;;;;;8.80;64.94;100644.16;1810489;77;20939;-79
2021/01/24 10:22:36;;;;;;;12.33;5.85;;;;;;;8.81;64.56;100632.80;1786267;80;22082;-69
2021/01/24 10:25:06;;;;;;;11.05;5.95;;;;;;;8.83;64.46;100631.78;1785909;79;21377;-69
2021/01/24 10:27:35;;;;;;;11.85;5.70;;;;;;;8.87;64.47;100625.47;1785910;79;21522;-79
2021/01/24 10:30:04;;;;;;;14.78;7.65;;;;;;;8.91;64.08;100630.06;1785818;80;20990;-77
2021/01/24 10:32:32;;;;;;;11.10;6.33;;;;;;;8.94;64.04;100624.69;1785823;79;21002;-74
2021/01/24 10:35:04;;;;;;;11.63;6.33;;;;;;;8.95;63.96;100626.36;1785953;80;22267;-77
2021/01/24 10:37:33;;;;;;;10.63;5.78;;;;;;;8.94;63.79;100622.07;1786135;80;21463;-73
2021/01/24 10:40:03;;;;;;;7.90;4.28;;;;;;;8.91;63.43;100617.85;1786255;80;20935;-68
2021/01/24 10:44:05;;;;;;;7.17;3.98;;;;;;;8.89;63.52;100605.32;1777390;79;22692;-74
2021/01/24 10:46:34;;;;;;;10.98;4.65;;;;;;;8.82;63.17;100603.09;1750041;82;20924;-78
2021/01/24 10:49:02;;;;;;;8.43;4.55;;;;;;;8.76;63.13;100609.95;1751208;80;21670;-80
2021/01/24 10:51:33;;;;;;;10.72;5.72;;;;;;;8.70;63.45;100606.73;1750589;81;20970;-79
2021/01/24 10:54:03;;;;;;;19.07;8.88;;;;;;;8.65;63.71;100607.45;1750022;82;20944;-79
2021/01/24 10:56:31;;;;;;;10.95;5.55;;;;;;;8.60;64.17;100608.12;1749933;80;20963;-77
2021/01/24 10:58:59;;;;;;;7.97;4.35;;;;;;;8.55;64.50;100594.47;1749732;80;21018;-73
2021/01/24 11:01:27;;;;;;;12.45;5.20;;;;;;;8.52;64.87;100596.41;1749739;80;21810;-79
2021/01/24 11:03:55;;;;;;;12.73;6.00;;;;;;;8.51;65.19;100599.47;1749623;82;21046;-76
2021/01/24 11:06:23;;;;;;;9.55;5.40;;;;;;;8.48;65.49;100592.63;1749617;81;21010;-76
2021/01/24 11:08:51;;;;;;;13.38;6.28;;;;;;;8.49;65.53;100586.94;1749524;80;20939;-75
2021/01/24 11:11:20;;;;;;;15.23;7.35;;;;;;;8.47;65.66;100584.42;1749649;80;20947;-75
2021/01/24 11:13:49;;;;;;;11.40;6.53;;;;;;;8.47;65.79;100588.78;1749673;82;22283;-75
2021/01/24 11:16:17;;;;;;;13.38;7.90;;;;;;;8.45;65.81;100587.58;1749480;80;21042;-78
2021/01/24 11:18:44;;;;;;;17.40;7.58;;;;;;;8.42;65.87;100579.87;1749763;82;20943;-70
2021/01/24 11:21:13;;;;;;;15.72;6.72;;;;;;;8.40;65.94;100583.02;1749568;82;20943;-70
2021/01/24 11:23:41;;;;;;;9.60;5.85;;;;;;;8.39;66.04;100572.64;1749637;80;21007;-72
2021/01/24 11:26:09;;;;;;;9.00;5.37;;;;;;;8.38;65.98;100577.03;1749563;82;21201;-73
2021/01/24 11:28:37;;;;;;;11.83;6.17;;;;;;;8.39;65.81;100579.17;1749494;80;21041;-72
2021/01/24 11:31:06;;;;;;;13.32;7.25;;;;;;;8.40;65.80;100576.93;1749640;82;20919;-71
2021/01/24 11:33:35;;;;;;;9.10;5.37;;;;;;;8.41;65.91;100576.05;1749584;82;21341;-71
2021/01/24 11:36:05;;;;;;;10.72;5.22;;;;;;;8.43;65.73;100570.29;1749617;82;20943;-74
2021/01/24 11:38:33;;;;;;;8.13;4.67;;;;;;;8.48;65.49;100574.34;1749641;80;22703;-75
2021/01/24 11:41:06;;;;;;;8.90;5.00;;;;;;;8.50;65.39;100567.27;1746738;82;20974;-78
2021/01/24 11:43:34;;;;;;;8.33;5.00;;;;;;;8.53;65.46;100576.70;1741140;81;20951;-77
2021/01/24 11:46:02;;;;;;;15.28;7.10;;;;;;;8.54;65.28;100571.88;1736344;82;20892;-77